Flight Track Log - Related Links

Times and Time Zones

All times are in EDT time to prevent confusion due to time zone crossing. See the N6619C flight status page for this flight to view local times or setup timezone preferences in your user account.

Time Position Orientation Groundspeed Altitude Reporting Facility
EDT Latitude Longitude Course Direction KTS MPH feet Rate Location/Type
Sun 08:20:32 AM 45.3589 -84.9078 164° South 135 155 3,100  Level Minneapolis Center
Sun 08:21:33 AM 45.3253 -84.8939 164° South 127 146 3,800 689 Climbing Minneapolis Center
Sun 08:22:34 AM 45.2900 -84.8850 170° South 127 146 4,500 689 Climbing Minneapolis Center
Sun 08:23:35 AM 45.2547 -84.8808 175° South 128 147 5,200 639 Climbing Minneapolis Center
Sun 08:24:36 AM 45.2192 -84.8772 176° South 128 147 5,800 590 Climbing Minneapolis Center
Sun 08:25:37 AM 45.1831 -84.8733 176° South 129 148 6,400 639 Climbing Minneapolis Center
Sun 08:26:38 AM 45.1464 -84.8683 175° South 130 150 7,100 585 Climbing Minneapolis Center
Sun 08:27:40 AM 45.1111 -84.8633 174° South 130 150 7,600 537 Climbing Minneapolis Center
Sun 08:28:41 AM 45.0689 -84.8575 174° South 128 147 8,200 295 Climbing Minneapolis Center
Sun 08:29:42 AM 45.0292 -84.8522 175° South 141 162 8,200 -49 Level Minneapolis Center
Sun 08:30:43 AM 44.9828 -84.8467 175° South 154 177 8,100 -49 Descending Minneapolis Center
Sun 08:31:44 AM 44.9403 -84.8411 175° South 155 178 8,100  Level Minneapolis Center
Sun 08:32:45 AM 44.8983 -84.8358 175° South 153 176 8,100  Level Minneapolis Center
Sun 08:33:46 AM 44.8517 -84.8306 175° South 157 181 8,100  Level Minneapolis Center
Sun 08:34:47 AM 44.8111 -84.8258 175° South 156 180 8,100  Level Minneapolis Center
Sun 08:35:48 AM 44.7703 -84.8208 175° South 152 175 8,100  Level Minneapolis Center
Sun 08:36:49 AM 44.7264 -84.8147 174° South 153 176 8,100  Level Minneapolis Center
Sun 08:37:51 AM 44.6819 -84.8097 175° South 156 180 8,100  Level Minneapolis Center
Sun 08:38:52 AM 44.6364 -84.8050 176° South 160 184 8,100 -148 Level Minneapolis Center
Sun 08:39:53 AM 44.5906 -84.7992 175° South 163 188 7,800 -492 Descending Minneapolis Center
Sun 08:40:54 AM 44.5356 -84.7928 175° South 165 190 7,100 -639 Descending Minneapolis Center
Sun 08:41:55 AM 44.4886 -84.7864 174° South 166 191 6,500 -541 Descending Minneapolis Center
Sun 08:42:56 AM 44.4417 -84.7800 174° South 168 193 6,000 -246 Descending Minneapolis Center
Sun 08:43:57 AM 44.3958 -84.7753 176° South 167 192 6,000  Level Minneapolis Center
Sun 08:44:58 AM 44.3514 -84.7697 175° South 164 189 6,000  Level Minneapolis Center
Sun 08:46:00 AM 44.3083 -84.7647 175° South 159 183 6,000  Level Minneapolis Center
Sun 08:47:01 AM 44.2653 -84.7606 176° South 155 178 6,000  Level Minneapolis Center
Sun 08:48:02 AM 44.2228 -84.7544 174° South 155 178 6,000  Level Minneapolis Center
Sun 08:49:03 AM 44.1803 -84.7492 175° South 154 177 6,000  Level Minneapolis Center
Sun 08:50:04 AM 44.1378 -84.7456 177° South 153 176 6,000  Level Minneapolis Center
Sun 08:51:05 AM 44.0958 -84.7397 174° South 153 176 6,000  Level Minneapolis Center
Sun 08:52:06 AM 44.0442 -84.7342 176° South 154 177 6,000  Level Minneapolis Center
Sun 08:53:07 AM 44.0039 -84.7294 175° South 155 178 6,000  Level Minneapolis Center
Sun 08:54:09 AM 43.9608 -84.7236 174° South 156 180 6,000  Level Minneapolis Center
Sun 08:55:10 AM 43.9183 -84.7189 175° South 154 177 6,000  Level Minneapolis Center
Sun 08:56:11 AM 43.8769 -84.7136 175° South 151 174 6,000  Level Minneapolis Center
Sun 08:57:12 AM 43.8361 -84.7086 175° South 149 171 6,000  Level Minneapolis Center
Sun 08:58:13 AM 43.7944 -84.7042 176° South 149 171 6,000  Level Minneapolis Center
Sun 08:59:14 AM 43.7533 -84.6989 175° South 150 173 6,000  Level Minneapolis Center
Sun 09:00:15 AM 43.7097 -84.6944 176° South 153 176 6,000  Level Minneapolis Center
Sun 09:01:17 AM 43.6606 -84.6875 174° South 150 173 6,000  Level Minneapolis Center
Sun 09:02:18 AM 43.6178 -84.6825 175° South 152 175 6,000  Level Minneapolis Center
Sun 09:03:19 AM 43.5753 -84.6781 176° South 153 176 6,000  Level Minneapolis Center
Sun 09:04:20 AM 43.5336 -84.6736 176° South 152 175 6,000  Level Minneapolis Center
Sun 09:05:21 AM 43.4914 -84.6683 175° South 152 175 6,000 29 Level Minneapolis Center
Sun 09:07:00 AM 43.4200 -84.6785 186° South  Level FlightAware Approximate
Sun 09:14:00 AM 43.1118 -84.7137 177° South  Level FlightAware Approximate
Sun 09:15:00 AM 43.0683 -84.7104 177° South  Level FlightAware Approximate
Sun 09:16:00 AM 43.0249 -84.7070 177° South  Level FlightAware Approximate
Sun 09:17:00 AM 42.9814 -84.7037 177° South  Level FlightAware Approximate
Sun 09:18:00 AM 42.9380 -84.7003 177° South  Level FlightAware Approximate
Sun 09:19:00 AM 42.8945 -84.6970 177° South  Level FlightAware Approximate
Sun 09:20:00 AM 42.8511 -84.6936 177° South  Level FlightAware Approximate
Sun 09:21:00 AM 42.8076 -84.6903 177° South  Level FlightAware Approximate
Sun 09:22:00 AM 42.7642 -84.6870 177° South  Level FlightAware Approximate
Sun 09:23:00 AM 42.7207 -84.6836 177° South  Level FlightAware Approximate
Sun 09:24:00 AM 42.6775 -84.6774 174° South  Level FlightAware Approximate
Sun 09:25:00 AM 42.6342 -84.6709 174° South  Level FlightAware Approximate
Sun 09:26:00 AM 42.5910 -84.6643 174° South  Level FlightAware Approximate
Sun 09:27:00 AM 42.5477 -84.6578 174° South  Level FlightAware Approximate
Sun 09:28:00 AM 42.5045 -84.6513 174° South  Level FlightAware Approximate
Sun 09:29:00 AM 42.4612 -84.6448 174° South  Level FlightAware Approximate
Sun 09:30:00 AM 42.4180 -84.6383 174° South  Level FlightAware Approximate
Sun 09:31:00 AM 42.3747 -84.6318 174° South  Level FlightAware Approximate
Sun 09:32:00 AM 42.3315 -84.6253 174° South  Level FlightAware Approximate
Sun 09:33:00 AM 42.2882 -84.6188 174° South  Level FlightAware Approximate
Sun 09:34:00 AM 42.2450 -84.6124 174° South  Level FlightAware Approximate
Sun 09:35:00 AM 42.2017 -84.6059 174° South  Level FlightAware Approximate
Sun 09:36:00 AM 42.1585 -84.5995 174° South  Level FlightAware Approximate
Sun 09:37:00 AM 42.1152 -84.5930 174° South  Level FlightAware Approximate
Sun 09:38:00 AM 42.0719 -84.5866 174° South  Level FlightAware Approximate
Sun 09:39:00 AM 42.0286 -84.5803 174° South  Level FlightAware Approximate
Sun 09:40:00 AM 41.9854 -84.5742 174° South  Level FlightAware Approximate
Sun 09:41:00 AM 41.9421 -84.5681 174° South  Level FlightAware Approximate
Sun 09:41:48 AM 41.9808 -84.4919 174° South 150 173 7,100  Level Chicago Center
Sun 09:42:00 AM 41.8988 -84.5620 174° South  Level FlightAware Approximate
Sun 09:42:50 AM 41.9353 -84.4867 175° South 149 171 7,100  Level Chicago Center
Sun 09:43:00 AM 41.8777 -84.5591 174° South  Level FlightAware Approximate
Sun 09:43:52 AM 41.8922 -84.4817 175° South 153 176 7,000  Level Chicago Center
Sun 09:44:00 AM 41.8567 -84.5561 174° South  Level FlightAware Approximate
Sun 09:44:54 AM 41.8483 -84.4761 175° South 156 180 6,500  Level Chicago Center
Sun 09:45:00 AM 41.8356 -84.5532 174° South  Level FlightAware Approximate
Sun 09:45:56 AM 41.8050 -84.4703 174° South 157 181 6,100  Level Chicago Center
Sun 09:46:00 AM 41.6116 -84.5219 174° South  Level FlightAware Approximate
Sun 09:46:58 AM 41.7622 -84.4664 176° South 156 180 6,000  Level Chicago Center
Sun 09:47:00 AM 41.3876 -84.4908 174° South  Level FlightAware Approximate
Sun 09:48:00 AM 41.7189 -84.4608 175° South 155 178 6,000  Level Chicago Center
Sun 09:49:02 AM 41.6683 -84.4544 175° South 154 177 6,000  Level Chicago Center
Sun 09:50:04 AM 41.6247 -84.4506 176° South 155 178 6,000  Level Chicago Center
Sun 09:51:06 AM 41.5811 -84.4450 175° South 156 180 6,000  Level Chicago Center
Sun 09:52:08 AM 41.5369 -84.4400 175° South 157 181 6,000  Level Chicago Center
Sun 09:53:10 AM 41.4919 -84.4339 174° South 159 183 6,000  Level Chicago Center
Sun 09:54:12 AM 41.4478 -84.4292 175° South 160 184 6,000  Level Chicago Center
Sun 09:55:14 AM 41.3950 -84.4231 175° South 159 183 6,000  Level Chicago Center
Sun 09:56:16 AM 41.3511 -84.4181 175° South 159 183 6,000  Level Chicago Center
Sun 09:57:18 AM 41.3069 -84.4119 174° South 159 183 6,000  Level Chicago Center
Sun 09:58:20 AM 41.2636 -84.4075 176° South 158 182 6,000  Level Chicago Center
Sun 09:59:23 AM 41.2206 -84.4031 176° South 156 180 6,000  Level Chicago Center
Sun 10:00:25 AM 41.1767 -84.3978 175° South 158 182 6,000  Level Chicago Center
Sun 10:01:27 AM 41.1314 -84.3931 176° South 159 183 6,000  Level Chicago Center
Sun 10:02:29 AM 41.0792 -84.3869 175° South 159 183 6,000  Level Chicago Center
Sun 10:03:32 AM 41.0350 -84.3808 174° South 159 183 6,000  Level Chicago Center
Sun 10:04:33 AM 40.9897 -84.3750 174° South 161 185 6,000  Level Chicago Center
Sun 10:05:35 AM 40.9453 -84.3708 176° South 161 185 6,000  Level Chicago Center
Sun 10:06:37 AM 40.9022 -84.3667 176° South 158 182 6,000  Level Chicago Center
Sun 10:07:33 AM 40.8517 -84.3622 176° South 156 180 6,000  Level Indianapolis Center
Sun 10:08:35 AM 40.8050 -84.3567 175° South 167 192 6,000  Level Indianapolis Center
Sun 10:09:37 AM 40.7600 -84.3508 174° South 163 188 6,000  Level Indianapolis Center
Sun 10:10:39 AM 40.7158 -84.3472 176° South 160 184 6,000  Level Indianapolis Center
Sun 10:11:41 AM 40.6717 -84.3417 175° South 159 183 6,000  Level Indianapolis Center
Sun 10:12:43 AM 40.6261 -84.3369 176° South 161 185 6,000  Level Indianapolis Center
Sun 10:13:45 AM 40.5797 -84.3317 175° South 163 188 6,000  Level Indianapolis Center
Sun 10:14:47 AM 40.5242 -84.3256 175° South 167 192 6,000  Level Indianapolis Center
Sun 10:15:49 AM 40.4778 -84.3208 176° South 167 192 6,000  Level Indianapolis Center
Sun 10:16:51 AM 40.4308 -84.3156 175° South 167 192 6,000 55 Level Indianapolis Center
Sun 10:17:38 AM 40.3911 -84.3117 176° South 168 193 6,100 56 Climbing Indianapolis Center
Sun 10:18:39 AM 40.3433 -84.3058 175° South 171 197 6,100  Level Indianapolis Center
Sun 10:19:40 AM 40.2978 -84.3003 175° South 170 196 6,100  Level Indianapolis Center
Sun 10:20:41 AM 40.2497 -84.2969 177° South 169 194 6,100  Level Indianapolis Center
Sun 10:21:48 AM 40.1978 -84.2903 174° South 168 193 6,100  Level Indianapolis Center
Sun 10:22:49 AM 40.1500 -84.2844 175° South 168 193 6,100  Level Indianapolis Center
Sun 10:23:50 AM 40.1019 -84.2814 177° South 170 196 6,100  Level Indianapolis Center
Sun 10:24:50 AM 40.0561 -84.2758 175° South 170 196 6,100  Level Indianapolis Center
Sun 10:25:51 AM 40.0064 -84.2694 174° South 170 196 6,100  Level Indianapolis Center
Sun 10:26:58 AM 39.9542 -84.2656 177° South 169 194 6,100  Level Indianapolis Center
Sun 10:27:59 AM 39.9064 -84.2597 175° South 165 190 6,100  Level Indianapolis Center
Sun 10:29:00 AM 39.8606 -84.2542 175° South 167 192 6,100  Level Indianapolis Center
Sun 10:30:01 AM 39.8128 -84.2483 175° South 172 198 6,100 -295 Level Indianapolis Center
Sun 10:31:02 AM 39.7650 -84.2425 175° South 172 198 5,500 -638 Descending Indianapolis Center
Sun 10:32:22 AM 39.6986 -84.2361 176° South 172 198 4,600 -675 Descending Indianapolis Center

Login

Don't have an account? Register now (free) for customized features, flight alerts, and more!